This is the latest recevied weather packets stored in our database for station/object N3WMC. If no packets are shown the sender has not sent any weather packets the latest 10 day(s).
| Time | Temp. | Humidity | Pressure | Rain* | Wind** | Luminosity | Snow |
|---|---|---|---|---|---|---|---|
| 1777376870 | 11.67° C | 89% | 1015.4 hPa | 1.27 mm | - | 17 W/m² | - |
| 1777376567 | 11.67° C | 88% | 1015.2 hPa | 0 mm | - | 16 W/m² | - |
| 1777376264 | 11.11° C | 88% | 1015.1 hPa | 0 mm | - | 15 W/m² | - |
| 1777375958 | 11.67° C | 88% | 1015.3 hPa | 1.78 mm | - | 5 W/m² | - |
| 1777375652 | 11.67° C | 87% | 1014.3 hPa | 1.78 mm | - | 11 W/m² | - |
| 1777375347 | 11.67° C | 85% | 1013.7 hPa | 0 mm | - | 13 W/m² | - |
| 1777375045 | 11.67° C | 85% | 1013.7 hPa | 0 mm | - | 10 W/m² | - |
| 1777374740 | 11.67° C | 84% | 1013.9 hPa | 0 mm | - | 9 W/m² | - |
| 1777374436 | 11.67° C | 84% | 1013.9 hPa | 0 mm | - | 8 W/m² | - |
| 1777374134 | 11.67° C | 84% | 1013.9 hPa | 0 mm | - | 7 W/m² | - |
| 1777373828 | 11.67° C | 84% | 1014.1 hPa | 0 mm | - | 6 W/m² | - |
| 1777373527 | 12.22° C | 83% | 1014.5 hPa | 0 mm | - | 5 W/m² | - |
| 1777373227 | 12.22° C | 81% | 1014.9 hPa | 0 mm | - | 4 W/m² | - |
| 1777372923 | 12.78° C | 79% | 1015 hPa | 0 mm | - | 3 W/m² | - |
| 1777372618 | 12.78° C | 78% | 1015.2 hPa | 0 mm | - | 2 W/m² | - |
| 1777372317 | 12.78° C | 77% | 1015.5 hPa | 0 mm | - | 1 W/m² | - |
| 1777372016 | 12.78° C | 79% | 1015.5 hPa | 0 mm | - | 1 W/m² | - |
| 1777371712 | 12.78° C | 81% | 1015.7 hPa | 0 mm | - | 0 W/m² | - |
| 1777371409 | 12.78° C | 80% | 1015.9 hPa | 0 mm | - | 0 W/m² | - |
| 1777371106 | 12.78° C | 78% | 1015.7 hPa | 0 mm | - | 0 W/m² | - |
| 1777370802 | 12.78° C | 79% | 1015.8 hPa | 0 mm | - | 0 W/m² | - |
| 1777370498 | 12.78° C | 80% | 1015.8 hPa | 1.27 mm | - | 0 W/m² | - |
| 1777370193 | 12.78° C | 82% | 1015.9 hPa | 1.27 mm | - | 0 W/m² | - |
| 1777369890 | 12.78° C | 82% | 1015.8 hPa | 0 mm | - | 0 W/m² | - |
| 1777369585 | 12.78° C | 84% | 1016.1 hPa | 0 mm | - | 0 W/m² | - |
* Rain latest hour (hover to see other rain measurements)
** Current wind speed in m/s (hover to see current wind gust speed)